Time;durP1;ratioP1;P1;durP2;ratioP2;P2;SDS_P1;SDS_P2;PMS_P1;PMS_P2;Temp;Humidity;BMP_temperature;BMP_pressure;BME280_temperature;BME280_humidity;BME280_pressure;Samples;Min_cycle;Max_cycle;Signal;HPM_P1;HPM_P2
2023/03/22 00:00:27;;;;;;;;;2.00;2.00;;;;;14.11;100.00;100969.31;5031693;28;47483;-77
2023/03/22 00:02:54;;;;;;;;;3.00;1.33;;;;;14.08;100.00;100974.63;5035367;28;45327;-77
2023/03/22 00:05:20;;;;;;;;;4.00;1.00;;;;;14.04;100.00;100971.09;5036918;28;45177;-77
2023/03/22 00:07:48;;;;;;;;;3.00;2.00;;;;;14.02;100.00;100970.22;5033971;28;45577;-77
2023/03/22 00:10:14;;;;;;;;;1.00;1.00;;;;;14.00;100.00;100969.31;5028025;28;46732;-77
2023/03/22 00:12:40;;;;;;;;;1.33;1.33;;;;;13.97;100.00;100950.75;5021247;28;45466;-78
2023/03/22 00:15:06;;;;;;;;;2.00;2.00;;;;;13.99;100.00;100950.75;5037327;28;66299;-76
2023/03/22 00:17:31;;;;;;;;;2.00;2.00;;;;;13.96;100.00;100943.69;5036349;28;45525;-77
2023/03/22 00:19:57;;;;;;;;;3.00;1.00;;;;;13.92;100.00;100939.25;5029202;28;45745;-77
2023/03/22 00:22:23;;;;;;;;;2.00;2.00;;;;;13.94;100.00;100948.09;5036449;28;45478;-76
2023/03/22 00:24:48;;;;;;;;;1.67;1.00;;;;;13.93;100.00;100940.13;5027977;28;45306;-77
2023/03/22 00:27:14;;;;;;;;;1.00;1.00;;;;;13.90;100.00;100951.63;5034061;28;60552;-77
2023/03/22 00:32:11;;;;;;;;;2.33;2.00;;;;;13.85;100.00;100941.03;5033427;28;45424;-76
2023/03/22 00:34:37;;;;;;;;;2.00;2.00;;;;;13.81;100.00;100933.94;5032627;28;45439;-78
2023/03/22 00:37:02;;;;;;;;;3.00;2.00;;;;;13.79;100.00;100926.84;5035875;28;54940;-77
2023/03/22 00:39:27;;;;;;;;;3.00;1.67;;;;;13.75;100.00;100933.06;5031524;28;45849;-78
2023/03/22 00:41:53;;;;;;;;;1.33;1.00;;;;;13.72;100.00;100930.41;5031873;28;46830;-77
2023/03/22 00:44:18;;;;;;;;;4.00;2.00;;;;;13.69;100.00;100923.34;5032199;28;45285;-77
2023/03/22 00:46:44;;;;;;;;;3.67;2.00;;;;;13.67;100.00;100918.91;4986617;28;45488;-77
2023/03/22 00:49:09;;;;;;;;;5.00;2.00;;;;;13.65;100.00;100918.03;5024501;28;46334;-77
2023/03/22 00:51:34;;;;;;;;;1.00;1.00;;;;;13.62;100.00;100911.84;5015448;28;56626;-77
2023/03/22 00:54:00;;;;;;;;;2.00;2.00;;;;;13.60;100.00;100910.06;5036826;28;45331;-77
2023/03/22 00:56:27;;;;;;;;;1.00;1.00;;;;;13.58;100.00;100904.78;5033544;28;45276;-77
2023/03/22 00:58:53;;;;;;;;;1.00;1.00;;;;;13.57;100.00;100900.34;5035342;28;47072;-78
2023/03/22 01:01:18;;;;;;;;;0.67;0.00;;;;;13.55;100.00;100899.47;5014511;28;45244;-78
2023/03/22 01:03:44;;;;;;;;;1.00;1.00;;;;;13.55;100.00;100906.53;5032949;28;55634;-77
2023/03/22 01:06:10;;;;;;;;;4.00;1.00;;;;;13.54;100.00;100896.81;5032301;28;45515;-77
2023/03/22 01:08:37;;;;;;;;;2.00;1.00;;;;;13.54;100.00;100896.81;5030382;28;45375;-77
2023/03/22 01:11:03;;;;;;;;;1.00;1.00;;;;;13.49;100.00;100903.91;5031541;28;45317;-78
2023/03/22 01:13:29;;;;;;;;;3.67;0.67;;;;;13.49;100.00;100898.59;5030027;28;45261;-78
2023/03/22 01:15:54;;;;;;;;;3.00;2.00;;;;;13.48;100.00;100896.81;5024401;28;45508;-77
2023/03/22 01:18:20;;;;;;;;;4.00;1.00;;;;;13.46;100.00;100888.84;5011831;28;46414;-77
2023/03/22 01:20:45;;;;;;;;;4.33;0.00;;;;;13.45;100.00;100879.13;5016781;28;65326;-77
2023/03/22 01:23:10;;;;;;;;;3.33;1.00;;;;;13.45;100.00;100884.44;5025131;28;63786;-77
2023/03/22 01:25:36;;;;;;;;;1.67;1.00;;;;;13.42;100.00;100868.50;5035072;28;63505;-76
2023/03/22 01:28:01;;;;;;;;;0.67;0.67;;;;;13.40;100.00;100864.09;5035648;28;66326;-77
2023/03/22 01:30:27;;;;;;;;;4.00;1.00;;;;;13.37;100.00;100865.00;4998047;28;45435;-78
2023/03/22 01:32:52;;;;;;;;;1.00;1.00;;;;;13.33;100.00;100848.19;5035629;28;45454;-77
2023/03/22 01:35:18;;;;;;;;;1.00;0.00;;;;;13.29;100.00;100849.06;5028216;28;54013;-76
2023/03/22 01:37:43;;;;;;;;;1.00;0.67;;;;;13.27;100.00;100834.06;5034659;28;69602;-78
2023/03/22 01:40:10;;;;;;;;;3.33;1.00;;;;;13.23;100.00;100841.13;5034118;28;45211;-77
2023/03/22 01:42:35;;;;;;;;;1.00;1.00;;;;;13.23;100.00;100841.13;5029258;28;45294;-78
2023/03/22 01:45:13;;;;;;;;;4.33;2.00;;;;;13.24;100.00;100839.34;5005820;28;45322;-76
2023/03/22 01:47:49;;;;;;;;;3.00;0.00;;;;;13.22;100.00;100834.03;5026534;28;45529;-77
2023/03/22 01:50:16;;;;;;;;;2.00;1.67;;;;;13.22;100.00;100834.03;5034424;28;45408;-78
2023/03/22 01:52:41;;;;;;;;;1.67;0.67;;;;;13.25;100.00;100825.19;5018325;28;45298;-77
2023/03/22 01:55:08;;;;;;;;;0.00;0.00;;;;;13.24;100.00;100831.38;5030042;28;58869;-78
2023/03/22 01:57:36;;;;;;;;;1.00;1.00;;;;;13.24;100.00;100831.38;5029526;28;45619;-77
2023/03/22 02:00:07;;;;;;;;;0.00;0.00;;;;;13.23;100.00;100817.25;5019063;28;45481;-78
2023/03/22 02:02:33;;;;;;;;;2.00;1.00;;;;;13.24;100.00;100823.44;5000015;28;45420;-78
2023/03/22 02:05:00;;;;;;;;;6.00;0.00;;;;;13.23;100.00;100808.41;5021215;28;45358;-76
2023/03/22 02:07:26;;;;;;;;;3.00;0.00;;;;;13.24;100.00;100795.16;5027224;28;69895;-76
2023/03/22 02:09:54;;;;;;;;;4.00;1.00;;;;;13.25;100.00;100788.06;5003855;28;45511;-78
2023/03/22 02:12:35;;;;;;;;;3.00;0.00;;;;;13.25;100.00;100783.66;5024905;28;45364;-77
2023/03/22 02:15:21;;;;;;;;;0.00;0.00;;;;;13.25;100.00;100782.78;5036713;28;45379;-76
2023/03/22 02:17:50;;;;;;;;;0.00;0.00;;;;;13.23;100.00;100790.72;5005071;28;47565;-78
2023/03/22 02:20:44;;;;;;;;;2.00;1.00;;;;;13.25;100.00;100783.66;5025113;28;45517;-77
2023/03/22 02:23:46;;;;;;;;;3.00;1.67;;;;;13.26;100.00;100781.88;5018752;28;45419;-76
2023/03/22 02:26:32;;;;;;;;;2.00;0.00;;;;;13.23;100.00;100790.72;5018423;28;46188;-76
2023/03/22 02:29:07;;;;;;;;;3.00;0.00;;;;;13.22;100.00;100782.78;4998991;28;46343;-77
2023/03/22 02:31:49;;;;;;;;;0.00;0.00;;;;;13.20;100.00;100782.72;5000699;28;45484;-78
2023/03/22 02:34:30;;;;;;;;;1.00;1.00;;;;;13.17;100.00;100781.88;5003371;28;45262;-77
2023/03/22 02:37:31;;;;;;;;;3.00;2.00;;;;;13.15;100.00;100779.19;5031594;28;45509;-78
2023/03/22 02:40:31;;;;;;;;;4.67;1.00;;;;;13.13;100.00;100775.69;5022143;28;47325;-77
2023/03/22 02:43:09;;;;;;;;;1.00;1.00;;;;;13.11;100.00;100778.34;5029579;28;45366;-77
2023/03/22 02:45:37;;;;;;;;;1.33;1.00;;;;;13.09;100.00;100792.47;5025941;28;45400;-76
2023/03/22 02:48:05;;;;;;;;;2.00;0.00;;;;;13.06;100.00;100788.06;5020889;28;45359;-76
2023/03/22 02:50:49;;;;;;;;;2.00;0.00;;;;;13.04;100.00;100780.97;5031613;28;46298;-76
2023/03/22 02:53:28;;;;;;;;;0.33;0.33;;;;;13.03;100.00;100792.47;5036208;28;45402;-77
2023/03/22 02:56:01;;;;;;;;;3.67;1.00;;;;;12.99;100.00;100786.25;5034914;28;45306;-76
2023/03/22 02:58:45;;;;;;;;;3.67;1.00;;;;;12.93;100.00;100794.22;5015592;28;45568;-76
2023/03/22 03:01:17;;;;;;;;;2.00;0.33;;;;;12.96;100.00;100790.72;5014776;28;47727;-76
2023/03/22 03:03:47;;;;;;;;;2.00;0.67;;;;;13.00;100.00;100805.72;5017533;28;45396;-76
2023/03/22 03:06:15;;;;;;;;;3.00;1.00;;;;;13.03;100.00;100797.75;5019421;28;45529;-77
2023/03/22 03:08:41;;;;;;;;;1.00;1.00;;;;;13.05;100.00;100786.31;5018501;28;45644;-77
2023/03/22 03:11:07;;;;;;;;;0.67;0.67;;;;;13.06;100.00;100797.78;5018364;28;46578;-76
2023/03/22 03:13:32;;;;;;;;;1.00;1.00;;;;;13.09;100.00;100796.00;5034281;28;65260;-77
2023/03/22 03:16:00;;;;;;;;;2.00;1.00;;;;;13.10;100.00;100787.19;5030659;28;52807;-77
2023/03/22 03:18:56;;;;;;;;;1.00;1.00;;;;;13.17;100.00;100795.13;5016030;28;45422;-78
2023/03/22 03:22:03;;;;;;;;;1.00;1.00;;;;;13.20;100.00;100781.84;5011547;28;46781;-76
2023/03/22 03:24:37;;;;;;;;;1.00;1.00;;;;;13.19;100.00;100796.00;5026937;28;45520;-77
2023/03/22 03:27:06;;;;;;;;;1.00;1.00;;;;;13.19;100.00;100790.69;5016643;28;45289;-76
2023/03/22 03:29:40;;;;;;;;;1.00;1.00;;;;;13.20;100.00;100777.44;5020176;28;45676;-77
2023/03/22 03:32:14;;;;;;;;;1.00;1.00;;;;;13.19;100.00;100782.75;5016649;28;47354;-78
2023/03/22 03:34:56;;;;;;;;;3.33;0.00;;;;;13.19;100.00;100773.03;5034374;28;45392;-77
2023/03/22 03:37:25;;;;;;;;;1.00;1.00;;;;;13.22;100.00;100782.78;5005739;28;45548;-77
2023/03/22 03:40:07;;;;;;;;;0.00;0.00;;;;;13.22;100.00;100786.31;5016544;28;45473;-77
2023/03/22 03:42:34;;;;;;;;;2.00;0.00;;;;;13.25;100.00;100777.47;5012513;28;46536;-77
2023/03/22 03:44:59;;;;;;;;;0.00;0.00;;;;;13.27;100.00;100770.41;5016931;28;62860;-77
2023/03/22 03:47:27;;;;;;;;;2.33;1.00;;;;;13.28;100.00;100775.72;5020183;28;45293;-77
2023/03/22 03:49:52;;;;;;;;;4.33;0.33;;;;;13.28;100.00;100778.34;5035628;28;65347;-77
2023/03/22 03:52:18;;;;;;;;;1.00;1.00;;;;;13.31;100.00;100783.63;5030776;28;48071;-77
2023/03/22 03:54:44;;;;;;;;;1.00;1.00;;;;;13.34;100.00;100777.47;5012356;28;50236;-76
2023/03/22 03:57:10;;;;;;;;;5.67;0.67;;;;;13.36;100.00;100770.38;5028824;28;45383;-78
2023/03/22 03:59:36;;;;;;;;;0.67;0.67;;;;;13.37;100.00;100777.47;5033083;28;45308;-77
2023/03/22 04:02:01;;;;;;;;;4.00;1.00;;;;;13.34;100.00;100782.78;5027593;28;70880;-76
2023/03/22 04:04:28;;;;;;;;;0.33;0.00;;;;;13.34;100.00;100788.06;5025961;28;45294;-76
2023/03/22 04:06:58;;;;;;;;;1.00;1.00;;;;;13.30;100.00;100779.22;5012129;28;45483;-77
2023/03/22 04:09:32;;;;;;;;;2.00;0.00;;;;;13.33;100.00;100781.88;5035898;28;45454;-76
2023/03/22 04:11:58;;;;;;;;;0.00;0.00;;;;;13.35;100.00;100788.06;5020152;28;46896;-78
2023/03/22 04:14:24;;;;;;;;;0.00;0.00;;;;;13.38;100.00;100779.22;5035813;28;45458;-77
2023/03/22 04:16:50;;;;;;;;;1.33;0.00;;;;;13.40;100.00;100777.44;5039601;28;45327;-77
2023/03/22 04:19:15;;;;;;;;;1.00;0.00;;;;;13.41;100.00;100778.34;5032313;28;45443;-78
2023/03/22 04:21:41;;;;;;;;;1.00;1.00;;;;;13.42;100.00;100777.44;5017399;28;47505;-77
2023/03/22 04:24:07;;;;;;;;;0.00;0.00;;;;;13.42;100.00;100775.66;5000170;28;45472;-77
2023/03/22 04:26:33;;;;;;;;;0.00;0.00;;;;;13.39;100.00;100758.91;5033520;28;45296;-77
2023/03/22 04:28:58;;;;;;;;;0.00;0.00;;;;;13.40;100.00;100752.69;5033132;28;45552;-77
2023/03/22 04:31:24;;;;;;;;;3.00;0.00;;;;;13.43;100.00;100756.25;5028058;28;47573;-76
2023/03/22 04:33:53;;;;;;;;;0.00;0.00;;;;;13.45;100.00;100748.28;5015579;28;45539;-77
2023/03/22 04:36:22;;;;;;;;;1.00;0.00;;;;;13.46;100.00;100750.91;5007388;28;45504;-78
2023/03/22 04:38:48;;;;;;;;;1.67;0.33;;;;;13.45;100.00;100743.84;5016812;28;45581;-77
2023/03/22 04:41:13;;;;;;;;;3.00;0.00;;;;;13.46;100.00;100758.00;5016433;28;70871;-77
2023/03/22 04:43:38;;;;;;;;;1.00;0.00;;;;;13.44;100.00;100747.41;5028375;28;71054;-76
2023/03/22 04:46:08;;;;;;;;;5.00;0.00;;;;;13.45;100.00;100758.88;5033092;28;45288;-77
2023/03/22 04:48:36;;;;;;;;;1.67;1.00;;;;;13.45;100.00;100748.28;5025453;28;45501;-75
2023/03/22 04:51:03;;;;;;;;;2.00;0.33;;;;;13.44;100.00;100751.81;5023028;28;45762;-77
2023/03/22 04:53:29;;;;;;;;;2.67;0.00;;;;;13.42;100.00;100727.94;5026951;28;45288;-77
2023/03/22 04:55:58;;;;;;;;;0.00;0.00;;;;;13.40;100.00;100740.31;5022940;28;45364;-78
2023/03/22 04:58:24;;;;;;;;;0.00;0.00;;;;;13.35;100.00;100752.72;5024955;28;45977;-78
2023/03/22 05:00:51;;;;;;;;;0.67;0.00;;;;;13.31;100.00;100742.97;5008147;28;46495;-77
2023/03/22 05:03:20;;;;;;;;;0.00;0.00;;;;;13.23;100.00;100732.41;5020664;28;45273;-77
2023/03/22 05:06:05;;;;;;;;;0.67;0.67;;;;;13.19;100.00;100713.81;5036570;28;45516;-77
2023/03/22 05:08:31;;;;;;;;;1.67;0.00;;;;;13.16;100.00;100724.44;5029952;28;45439;-77
2023/03/22 05:10:58;;;;;;;;;2.33;0.67;;;;;13.11;100.00;100719.13;5022538;28;46424;-78
2023/03/22 05:13:25;;;;;;;;;0.00;0.00;;;;;13.10;100.00;100736.81;5026930;28;45497;-76
2023/03/22 05:15:51;;;;;;;;;0.33;0.00;;;;;13.08;100.00;100737.69;5018773;28;45467;-77
2023/03/22 05:18:23;;;;;;;;;0.00;0.00;;;;;13.09;100.00;100745.63;4997133;28;45446;-76
2023/03/22 05:20:49;;;;;;;;;1.00;0.00;;;;;13.09;100.00;100740.31;5015645;28;46933;-77
2023/03/22 05:23:17;;;;;;;;;1.00;0.67;;;;;13.14;100.00;100736.78;5035204;28;45494;-77
2023/03/22 05:25:44;;;;;;;;;0.00;0.00;;;;;13.18;100.00;100731.50;5020447;28;45475;-76
2023/03/22 05:28:09;;;;;;;;;2.00;0.67;;;;;13.20;100.00;100731.47;5029511;28;45645;-77
2023/03/22 05:30:34;;;;;;;;;1.67;0.00;;;;;13.26;100.00;100729.75;5034299;28;67555;-77
2023/03/22 05:33:02;;;;;;;;;0.00;0.00;;;;;13.28;100.00;100733.28;5012876;28;45536;-76
2023/03/22 05:35:32;;;;;;;;;3.67;0.00;;;;;13.32;100.00;100744.78;5037401;28;45448;-77
2023/03/22 05:37:59;;;;;;;;;2.00;1.00;;;;;13.33;100.00;100738.59;5019997;28;45543;-77
2023/03/22 05:40:24;;;;;;;;;0.00;0.00;;;;;13.32;100.00;100744.78;5031242;28;47342;-78
2023/03/22 05:42:50;;;;;;;;;0.00;0.00;;;;;13.33;100.00;100747.41;5025915;28;45532;-78
2023/03/22 05:45:16;;;;;;;;;1.00;1.00;;;;;13.38;100.00;100747.41;5022906;28;65737;-77
2023/03/22 05:47:42;;;;;;;;;0.00;0.00;;;;;13.39;100.00;100749.16;5017392;28;45570;-78
2023/03/22 05:50:09;;;;;;;;;2.00;1.00;;;;;13.42;100.00;100750.91;5021206;28;46505;-78
2023/03/22 05:52:35;;;;;;;;;0.33;0.00;;;;;13.40;100.00;100753.59;5004437;28;45484;-77
2023/03/22 05:55:00;;;;;;;;;0.67;0.00;;;;;13.43;100.00;100744.75;5026358;28;45363;-78
2023/03/22 05:57:26;;;;;;;;;0.67;0.67;;;;;13.43;100.00;100742.09;5016822;28;45949;-84
2023/03/22 05:59:52;;;;;;;;;1.00;0.00;;;;;13.43;100.00;100735.03;4986207;28;47515;-81
2023/03/22 06:02:19;;;;;;;;;1.00;0.00;;;;;13.46;100.00;100739.44;5008784;28;46072;-83
2023/03/22 06:04:45;;;;;;;;;0.00;0.00;;;;;13.48;100.00;100724.41;5005058;28;45381;-82
2023/03/22 06:07:11;;;;;;;;;2.67;1.00;;;;;13.46;100.00;100729.69;5006291;28;45254;-79
2023/03/22 06:09:36;;;;;;;;;0.00;0.00;;;;;13.49;100.00;100735.00;5021821;28;45539;-82
2023/03/22 06:12:02;;;;;;;;;2.00;1.00;;;;;13.51;100.00;100732.34;5008598;28;53902;-85
2023/03/22 06:14:27;;;;;;;;;1.33;1.33;;;;;13.51;100.00;100725.25;5033515;28;45404;-82
2023/03/22 06:16:52;;;;;;;;;1.00;1.00;;;;;13.49;100.00;100731.47;5016725;28;63062;-79
2023/03/22 06:19:17;;;;;;;;;2.00;1.00;;;;;13.55;100.00;100740.28;5032033;28;69689;-76
2023/03/22 06:21:43;;;;;;;;;4.00;1.00;;;;;13.54;100.00;100737.66;5032712;28;61707;-78
2023/03/22 06:24:09;;;;;;;;;4.00;1.00;;;;;13.56;100.00;100736.75;5032726;28;45420;-76
2023/03/22 06:26:34;;;;;;;;;0.00;0.00;;;;;13.58;100.00;100744.69;5025577;28;45580;-78
2023/03/22 06:29:02;;;;;;;;;1.00;1.00;;;;;13.61;100.00;100745.56;5032735;28;46676;-76
2023/03/22 06:31:28;;;;;;;;;3.00;1.33;;;;;13.65;100.00;100764.16;5026680;28;46827;-76
2023/03/22 06:33:53;;;;;;;;;2.00;1.00;;;;;13.67;100.00;100754.41;5017442;28;45400;-75
2023/03/22 06:36:18;;;;;;;;;4.33;0.67;;;;;13.71;100.00;100764.13;5031706;28;45428;-76
2023/03/22 06:38:44;;;;;;;;;1.67;1.67;;;;;13.72;100.00;100763.25;5025599;28;47518;-76
2023/03/22 06:41:09;;;;;;;;;2.67;2.00;;;;;13.70;100.00;100771.22;5028650;28;45537;-76
2023/03/22 06:43:35;;;;;;;;;2.33;1.00;;;;;13.69;100.00;100768.53;5022837;28;45273;-79
2023/03/22 06:46:00;;;;;;;;;5.00;1.33;;;;;13.69;100.00;100776.50;5024419;28;45513;-76
2023/03/22 06:48:25;;;;;;;;;1.67;1.00;;;;;13.68;100.00;100777.41;5018059;28;66005;-76
2023/03/22 06:50:51;;;;;;;;;3.00;1.00;;;;;13.68;100.00;100786.22;5012077;28;57370;-76
2023/03/22 06:53:16;;;;;;;;;4.00;2.00;;;;;13.69;100.00;100787.13;5026368;28;63259;-77
2023/03/22 06:55:41;;;;;;;;;2.33;2.00;;;;;13.67;100.00;100783.59;5031094;28;56524;-75
2023/03/22 06:58:07;;;;;;;;;3.33;2.67;;;;;13.68;100.00;100783.56;5032018;28;45722;-76
2023/03/22 07:00:33;;;;;;;;;2.00;2.00;;;;;13.67;100.00;100787.13;5032106;28;45622;-77
2023/03/22 07:02:58;;;;;;;;;2.00;2.00;;;;;13.69;100.00;100777.41;5022490;28;45348;-79
2023/03/22 07:05:24;;;;;;;;;7.00;4.00;;;;;13.70;100.00;100783.59;5029785;28;45621;-77
2023/03/22 07:07:49;;;;;;;;;6.33;2.00;;;;;13.72;100.00;100780.03;5030466;28;67683;-76
2023/03/22 07:10:15;;;;;;;;;2.33;1.00;;;;;13.79;100.00;100771.16;5032650;28;64594;-77
2023/03/22 07:12:40;;;;;;;;;8.00;3.00;;;;;13.81;100.00;100780.03;5027739;28;45297;-76
2023/03/22 07:15:06;;;;;;;;;5.33;2.67;;;;;13.84;100.00;100779.09;5023694;28;45653;-76
2023/03/22 07:17:31;;;;;;;;;4.00;2.00;;;;;13.88;100.00;100770.25;5030040;28;46077;-76
2023/03/22 07:19:57;;;;;;;;;4.00;2.00;;;;;13.93;100.00;100776.44;5027577;28;67889;-75
2023/03/22 07:22:23;;;;;;;;;1.67;1.67;;;;;13.96;100.00;100771.13;4993333;28;46518;-77
2023/03/22 07:24:49;;;;;;;;;2.00;2.00;;;;;13.98;100.00;100769.34;5002986;28;45507;-76
2023/03/22 07:27:14;;;;;;;;;1.67;1.67;;;;;13.99;100.00;100773.75;5029234;28;45552;-76
2023/03/22 07:29:40;;;;;;;;;3.67;3.00;;;;;13.99;100.00;100773.75;5025298;28;67770;-77
2023/03/22 07:32:05;;;;;;;;;2.00;2.00;;;;;13.94;100.00;100770.22;5007367;28;45360;-77
2023/03/22 07:34:31;;;;;;;;;2.33;1.00;;;;;13.94;100.00;100766.69;5028090;28;45410;-74
2023/03/22 07:36:56;;;;;;;;;2.00;2.00;;;;;13.92;100.00;100777.31;5020896;28;67275;-77
2023/03/22 07:39:23;;;;;;;;;2.00;2.00;;;;;13.93;100.00;100776.44;5031080;28;69491;-77
2023/03/22 07:41:49;;;;;;;;;4.00;2.00;;;;;13.97;100.00;100786.16;5028728;28;46136;-77
2023/03/22 07:44:14;;;;;;;;;0.67;0.00;;;;;13.98;100.00;100787.03;5031962;28;45521;-78
2023/03/22 07:46:40;;;;;;;;;6.33;3.00;;;;;13.93;100.00;100784.41;5027302;28;45741;-78
2023/03/22 07:49:05;;;;;;;;;3.00;2.00;;;;;13.92;100.00;100793.25;5009917;28;59335;-77
2023/03/22 07:51:30;;;;;;;;;3.33;3.00;;;;;13.93;100.00;100791.47;5026688;28;54232;-77
2023/03/22 07:53:56;;;;;;;;;2.33;1.00;;;;;13.91;100.00;100794.16;5027958;28;55560;-77
2023/03/22 07:56:21;;;;;;;;;2.33;1.00;;;;;13.91;100.00;100804.75;5030059;28;71374;-78
2023/03/22 07:58:46;;;;;;;;;1.33;1.33;;;;;13.87;100.00;100795.91;5025730;28;65109;-79
2023/03/22 08:01:12;;;;;;;;;4.33;1.33;;;;;13.87;100.00;100777.34;5011366;28;45500;-78
2023/03/22 08:03:38;;;;;;;;;3.67;1.33;;;;;13.90;100.00;100789.69;5031869;28;55961;-78
2023/03/22 08:06:06;;;;;;;;;10.00;3.00;;;;;13.93;100.00;100795.00;5016923;28;48972;-78
2023/03/22 08:08:32;;;;;;;;;3.33;2.00;;;;;13.97;100.00;100801.22;5029854;28;45463;-78
2023/03/22 08:10:57;;;;;;;;;3.00;3.00;;;;;13.98;100.00;100795.88;5029674;28;45379;-77
2023/03/22 08:13:23;;;;;;;;;4.67;3.00;;;;;14.00;100.00;100791.44;5033722;28;45512;-76
2023/03/22 08:15:48;;;;;;;;;2.67;2.00;;;;;14.01;100.00;100806.50;5027935;28;70451;-77
2023/03/22 08:18:13;;;;;;;;;2.33;2.00;;;;;14.04;100.00;100793.19;5027195;28;45635;-78
2023/03/22 08:20:39;;;;;;;;;3.00;1.00;;;;;14.05;100.00;100786.13;5014096;28;51681;-76
2023/03/22 08:23:06;;;;;;;;;7.00;2.00;;;;;14.07;100.00;100789.66;5029607;28;45586;-78
2023/03/22 08:25:32;;;;;;;;;1.00;1.00;;;;;14.08;100.00;100797.63;5031516;28;46161;-77
2023/03/22 08:27:58;;;;;;;;;3.67;1.00;;;;;14.08;100.00;100791.44;5029827;28;45217;-78
2023/03/22 08:30:23;;;;;;;;;5.00;2.00;;;;;14.11;100.00;100800.28;5032236;28;45372;-78
2023/03/22 08:32:49;;;;;;;;;1.00;1.00;;;;;14.12;100.00;100802.03;4991938;28;45697;-78
2023/03/22 08:35:14;;;;;;;;;3.00;2.00;;;;;14.13;100.00;100789.63;5027673;28;45581;-78
2023/03/22 08:37:40;;;;;;;;;16.00;12.00;;;;;14.18;100.00;100794.94;5030769;28;45504;-78
2023/03/22 08:40:08;;;;;;;;;24.00;18.00;;;;;14.20;100.00;100787.84;5030820;28;45375;-78
2023/03/22 08:42:34;;;;;;;;;8.00;4.33;;;;;14.24;100.00;100797.56;5032423;28;45447;-78
2023/03/22 08:44:59;;;;;;;;;4.33;2.00;;;;;14.31;100.00;100794.84;5031768;28;46329;-78
2023/03/22 08:47:25;;;;;;;;;6.00;6.00;;;;;14.35;100.00;100791.28;5032557;28;45396;-80
2023/03/22 08:49:50;;;;;;;;;3.00;2.00;;;;;14.42;100.00;100800.09;5033561;28;61311;-78
2023/03/22 08:52:15;;;;;;;;;5.33;2.33;;;;;14.45;100.00;100793.91;5027785;28;60461;-79
2023/03/22 08:54:41;;;;;;;;;4.00;2.00;;;;;14.42;100.00;100787.72;5034513;28;67058;-79
2023/03/22 08:57:08;;;;;;;;;10.33;3.00;;;;;14.41;100.00;100796.56;5016869;28;45633;-76
2023/03/22 08:59:33;;;;;;;;;3.00;2.00;;;;;14.38;100.00;100795.69;5030976;28;45507;-80
2023/03/22 09:01:59;;;;;;;;;3.33;3.00;;;;;14.34;100.00;100791.31;5016840;28;45576;-80
2023/03/22 09:04:25;;;;;;;;;3.67;2.00;;;;;14.31;100.00;100783.34;5031258;28;45993;-78
2023/03/22 09:06:50;;;;;;;;;3.00;1.67;;;;;14.32;100.00;100787.75;5029495;28;46458;-77
2023/03/22 09:09:16;;;;;;;;;6.00;5.00;;;;;14.30;100.00;100784.25;5035730;28;45459;-79
2023/03/22 09:11:41;;;;;;;;;6.00;2.00;;;;;14.30;100.00;100778.94;5016426;28;45544;-79
2023/03/22 09:14:08;;;;;;;;;5.00;1.00;;;;;14.32;100.00;100774.47;5033192;28;46220;-78
2023/03/22 09:16:33;;;;;;;;;2.00;2.00;;;;;14.34;100.00;100783.34;5035948;28;45431;-81
2023/03/22 09:19:00;;;;;;;;;3.00;1.00;;;;;14.35;100.00;100798.38;5036012;28;45529;-77
2023/03/22 09:21:25;;;;;;;;;6.67;3.00;;;;;14.36;100.00;100798.38;5018335;28;45456;-82
2023/03/22 09:23:50;;;;;;;;;2.67;2.67;;;;;14.35;100.00;100788.63;5012529;28;55319;-79
2023/03/22 09:26:16;;;;;;;;;3.67;2.67;;;;;14.37;100.00;100775.34;5024616;28;66964;-80
2023/03/22 09:28:42;;;;;;;;;1.67;1.33;;;;;14.43;100.00;100775.31;5009779;28;45629;-79
2023/03/22 09:31:08;;;;;;;;;2.67;2.67;;;;;14.43;100.00;100762.03;5035661;28;45723;-78
2023/03/22 09:33:35;;;;;;;;;2.00;2.00;;;;;14.46;100.00;100764.69;5012459;28;47151;-80
2023/03/22 09:36:00;;;;;;;;;2.33;1.00;;;;;14.49;100.00;100756.72;5026505;28;45525;-79
2023/03/22 09:38:26;;;;;;;;;4.00;2.67;;;;;14.57;100.00;100764.63;5033761;28;45849;-79
2023/03/22 09:41:01;;;;;;;;;2.00;2.00;;;;;14.65;100.00;100762.84;5016751;28;45651;-78
2023/03/22 09:43:33;;;;;;;;;3.00;2.00;;;;;14.68;100.00;100762.78;5015704;28;46036;-80
2023/03/22 09:45:59;;;;;;;;;1.00;1.00;;;;;14.70;100.00;100771.66;5031102;28;45707;-77
2023/03/22 09:48:36;;;;;;;;;4.00;4.00;;;;;14.68;100.00;100757.47;5032946;28;45446;-78
2023/03/22 09:51:04;;;;;;;;;5.00;3.33;;;;;14.73;100.00;100758.31;5011381;28;45512;-80
2023/03/22 09:53:31;;;;;;;;;2.00;2.00;;;;;14.76;100.00;100752.13;5016213;28;45756;-78
2023/03/22 09:56:14;;;;;;;;;5.00;3.00;;;;;14.75;100.00;100737.91;5014405;28;45422;-80
2023/03/22 09:58:49;;;;;;;;;6.00;2.00;;;;;14.77;100.00;100744.13;5020111;28;45472;-79
2023/03/22 10:01:35;;;;;;;;;5.00;3.33;;;;;14.78;100.00;100745.00;5009189;28;45336;-79
2023/03/22 10:04:32;;;;;;;;;4.67;3.00;;;;;14.79;100.00;100728.16;5028449;28;47470;-80
2023/03/22 10:07:12;;;;;;;;;4.67;3.00;;;;;14.80;100.00;100740.56;5032239;28;45434;-79
2023/03/22 10:09:53;;;;;;;;;6.00;3.00;;;;;14.78;100.00;100743.22;5033512;28;45515;-78
2023/03/22 10:12:30;;;;;;;;;5.67;2.33;;;;;14.80;100.00;100732.56;5028423;28;45342;-77
2023/03/22 10:15:05;;;;;;;;;4.00;2.33;;;;;14.79;100.00;100737.00;5042076;28;46479;-80
2023/03/22 10:17:30;;;;;;;;;4.33;3.00;;;;;14.81;100.00;100723.72;5014816;28;45429;-78
2023/03/22 10:20:27;;;;;;;;;5.33;3.00;;;;;14.82;100.00;100738.78;5014064;28;55753;-80
2023/03/22 10:22:53;;;;;;;;;5.67;4.33;;;;;14.83;100.00;100728.13;5016307;28;45762;-79
2023/03/22 10:25:30;;;;;;;;;4.67;4.67;;;;;14.86;100.00;100717.47;5016001;28;73176;-80
2023/03/22 10:27:55;;;;;;;;;7.00;4.00;;;;;14.89;100.00;100716.56;5014997;28;45324;-79
2023/03/22 10:30:23;;;;;;;;;5.00;4.00;;;;;14.92;100.00;100706.78;5035436;28;45953;-79
2023/03/22 10:33:00;;;;;;;;;3.00;3.00;;;;;14.93;100.00;100712.97;5034106;28;45474;-79
2023/03/22 10:35:25;;;;;;;;;3.00;3.00;;;;;14.92;100.00;100705.91;5027419;28;47628;-80
2023/03/22 10:37:51;;;;;;;;;3.67;2.33;;;;;14.90;100.00;100708.56;5032360;28;45502;-77
2023/03/22 10:40:30;;;;;;;;;3.00;3.00;;;;;14.91;100.00;100702.38;5014289;28;45540;-80
2023/03/22 10:43:03;;;;;;;;;4.67;3.33;;;;;14.95;100.00;100703.22;5033190;28;45522;-78
2023/03/22 10:45:32;;;;;;;;;5.00;3.00;;;;;14.97;100.00;100721.78;5010709;28;46630;-76
2023/03/22 10:48:03;;;;;;;;;4.00;3.00;;;;;14.99;100.00;100704.94;5028205;28;45568;-77
2023/03/22 10:50:37;;;;;;;;;5.00;3.00;;;;;15.05;100.00;100710.22;5012610;28;45430;-77
2023/03/22 10:53:27;;;;;;;;;3.67;2.33;;;;;15.12;100.00;100705.69;5012823;28;45875;-77
2023/03/22 10:55:52;;;;;;;;;1.67;1.00;;;;;15.20;100.00;100706.53;5030660;28;46974;-79
2023/03/22 10:58:27;;;;;;;;;4.67;3.00;;;;;15.30;100.00;100702.00;5028078;28;70742;-79
2023/03/22 11:00:55;;;;;;;;;4.00;4.00;;;;;15.41;100.00;100703.63;5026477;28;45554;-77
2023/03/22 11:03:36;;;;;;;;;3.00;3.00;;;;;15.49;100.00;100684.03;5026861;28;45567;-78
2023/03/22 11:06:09;;;;;;;;;7.00;3.00;;;;;15.58;100.00;100690.13;5031642;28;46604;-78
2023/03/22 11:08:49;;;;;;;;;5.00;3.33;;;;;15.69;100.00;100685.59;5029022;28;45358;-78
2023/03/22 11:11:22;;;;;;;;;5.00;4.00;;;;;15.78;100.00;100689.06;5030710;28;45513;-77
2023/03/22 11:13:59;;;;;;;;;4.67;3.67;;;;;15.86;100.00;100696.03;5031889;28;45470;-77
2023/03/22 11:16:25;;;;;;;;;4.00;3.00;;;;;15.91;100.00;100703.97;5032523;28;47302;-79
2023/03/22 11:18:51;;;;;;;;;5.00;3.33;;;;;15.93;100.00;100694.19;5029560;28;45434;-79
2023/03/22 11:21:19;;;;;;;;;8.00;3.67;;;;;15.96;100.00;100689.69;5010003;28;45499;-80
2023/03/22 11:24:05;;;;;;;;;4.67;3.00;;;;;16.00;100.00;100684.31;5009005;28;45647;-79
2023/03/22 11:26:33;;;;;;;;;6.00;3.33;;;;;16.01;100.00;100686.97;5026313;28;47556;-76